createdAt,value
2018-07-23T00:01:08.612Z,78.44
2018-07-23T00:03:47.871Z,78.62
2018-07-23T00:06:21.604Z,78.52
2018-07-23T00:09:05.860Z,79.10
2018-07-23T00:11:42.597Z,79.10
2018-07-23T00:14:17.128Z,79.37
2018-07-23T00:16:51.860Z,79.46
2018-07-23T00:19:33.716Z,79.72
2018-07-23T00:22:06.240Z,79.96
2018-07-23T00:24:39.727Z,80.10
2018-07-23T00:27:15.936Z,80.41
2018-07-23T00:29:48.691Z,80.85
2018-07-23T00:32:22.708Z,80.75
2018-07-23T00:34:55.457Z,80.86
2018-07-23T00:37:29.193Z,81.16
2018-07-23T00:40:05.545Z,81.11
2018-07-23T00:42:38.922Z,81.37
2018-07-23T00:45:14.195Z,81.29
2018-07-23T00:47:47.494Z,81.62
2018-07-23T00:50:22.160Z,81.97
2018-07-23T00:52:55.709Z,82.06
2018-07-23T00:55:30.150Z,82.18
2018-07-23T00:58:03.076Z,82.04
2018-07-23T01:00:36.636Z,82.07
2018-07-23T01:03:09.443Z,82.16
2018-07-23T01:05:41.912Z,82.54
2018-07-23T01:08:16.124Z,82.76
2018-07-23T01:10:50.621Z,82.70
2018-07-23T01:13:23.118Z,83.46
2018-07-23T01:15:56.768Z,83.31
2018-07-23T01:18:29.724Z,83.85
2018-07-23T01:21:03.124Z,83.94
2018-07-23T01:23:38.112Z,84.40
2018-07-23T01:26:11.087Z,84.08
2018-07-23T01:28:43.508Z,84.33
2018-07-23T01:31:17.373Z,84.23
2018-07-23T01:33:50.287Z,84.35
2018-07-23T01:36:22.814Z,84.24
2018-07-23T01:38:55.284Z,83.78
2018-07-23T01:41:28.141Z,83.95
2018-07-23T01:44:00.645Z,84.42
2018-07-23T01:46:34.621Z,85.01
2018-07-23T01:49:07.408Z,85.16
2018-07-23T01:51:40.664Z,84.99
2018-07-23T01:54:13.215Z,84.97
2018-07-23T01:56:45.960Z,85.17
2018-07-23T01:59:22.724Z,85.22
2018-07-23T02:01:56.019Z,85.23
2018-07-23T02:04:35.599Z,85.21
2018-07-23T02:07:08.364Z,85.16
2018-07-23T02:09:41.076Z,85.03
2018-07-23T02:12:13.967Z,85.32
2018-07-23T02:14:46.752Z,85.45
2018-07-23T02:17:19.485Z,85.53
2018-07-23T02:19:52.087Z,85.57
2018-07-23T02:22:24.892Z,85.57
2018-07-23T02:24:57.786Z,85.90
2018-07-23T02:27:30.450Z,85.66
2018-07-23T02:30:05.811Z,85.73
2018-07-23T02:32:38.711Z,85.91
2018-07-23T02:35:11.204Z,85.89
2018-07-23T02:37:45.152Z,85.99
2018-07-23T02:40:17.994Z,86.06
2018-07-23T02:42:50.588Z,86.12
2018-07-23T02:45:23.434Z,86.19
2018-07-23T02:47:57.448Z,86.29
2018-07-23T02:50:29.967Z,86.50
2018-07-23T02:53:02.543Z,86.37
2018-07-23T02:55:35.273Z,86.46
2018-07-23T02:58:07.901Z,86.64
2018-07-23T03:00:40.477Z,86.78
2018-07-23T03:03:13.280Z,86.79
2018-07-23T03:05:46.085Z,86.95
2018-07-23T03:08:18.861Z,87.37
2018-07-23T03:10:52.301Z,87.09
2018-07-23T03:13:28.332Z,86.97
2018-07-23T03:16:02.663Z,87.11
2018-07-23T03:18:37.048Z,87.33
2018-07-23T03:21:09.706Z,87.20
2018-07-23T03:23:44.029Z,87.38
2018-07-23T03:26:17.040Z,87.09
2018-07-23T03:28:50.860Z,87.10
2018-07-23T03:31:27.555Z,87.38
2018-07-23T03:34:06.488Z,87.53
2018-07-23T03:36:39.072Z,87.63
2018-07-23T03:39:12.660Z,87.68
2018-07-23T03:41:47.289Z,87.78
2018-07-23T03:44:20.012Z,87.90
2018-07-23T03:46:52.419Z,88.14
2018-07-23T03:49:27.272Z,88.07
2018-07-23T03:52:00.286Z,88.29
2018-07-23T03:54:34.483Z,88.72
2018-07-23T03:57:09.076Z,88.56
2018-07-23T03:59:41.652Z,88.72
2018-07-23T04:02:14.360Z,88.45
2018-07-23T04:04:48.586Z,88.64
2018-07-23T04:07:21.255Z,88.74
2018-07-23T04:09:53.893Z,89.29
2018-07-23T04:12:26.929Z,89.12
2018-07-23T04:15:00.646Z,89.07
2018-07-23T04:17:36.362Z,89.05
2018-07-23T04:20:10.520Z,88.63
2018-07-23T04:22:43.381Z,88.43
2018-07-23T04:25:15.831Z,88.29
2018-07-23T04:27:48.574Z,88.63
2018-07-23T04:30:21.283Z,88.83
2018-07-23T04:32:54.300Z,88.85
2018-07-23T04:35:27.532Z,88.79
2018-07-23T04:38:01.163Z,88.84
2018-07-23T04:40:37.641Z,88.68
2018-07-23T04:43:11.501Z,88.64
2018-07-23T04:45:44.714Z,88.59
2018-07-23T04:48:17.207Z,88.30
2018-07-23T04:50:50.077Z,87.97
2018-07-23T04:53:22.603Z,87.78
2018-07-23T04:55:55.492Z,87.88
2018-07-23T04:58:31.836Z,87.73
2018-07-23T05:01:04.552Z,87.39
2018-07-23T05:03:38.637Z,86.96
2018-07-23T05:06:12.693Z,86.94
2018-07-23T05:08:45.574Z,87.01
2018-07-23T05:11:18.048Z,87.11
2018-07-23T05:13:51.012Z,87.06
2018-07-23T05:16:23.445Z,86.75
2018-07-23T05:18:55.932Z,86.54
2018-07-23T05:21:28.850Z,86.17
2018-07-23T05:24:01.509Z,85.91
2018-07-23T05:26:34.128Z,85.81
2018-07-23T05:29:07.360Z,85.62
2018-07-23T05:31:40.446Z,85.28
2018-07-23T05:34:13.059Z,84.61
2018-07-23T05:36:45.500Z,83.51
2018-07-23T05:39:19.472Z,82.71
2018-07-23T05:41:52.087Z,81.19
2018-07-23T05:44:24.617Z,80.42
2018-07-23T05:46:59.302Z,79.31
2018-07-23T05:49:31.821Z,79.18
2018-07-23T05:52:04.428Z,78.83
2018-07-23T05:54:41.569Z,78.62
2018-07-23T05:57:14.348Z,78.15
2018-07-23T05:59:46.868Z,78.00
2018-07-23T06:02:19.805Z,77.62
2018-07-23T06:04:52.457Z,77.36
2018-07-23T06:07:25.912Z,77.01
2018-07-23T06:10:00.684Z,76.61
2018-07-23T06:12:33.742Z,76.48
2018-07-23T06:15:08.384Z,74.07
2018-07-23T06:17:41.233Z,72.48
2018-07-23T06:20:13.877Z,70.80
2018-07-23T06:22:46.409Z,68.65
2018-07-23T06:25:19.196Z,68.12
2018-07-23T06:27:52.630Z,67.28
2018-07-23T06:30:25.176Z,65.02
2018-07-23T06:32:58.236Z,65.22
2018-07-23T06:35:30.735Z,61.26
2018-07-23T06:38:04.461Z,61.01
2018-07-23T06:40:37.352Z,61.13
2018-07-23T06:43:11.451Z,60.93
2018-07-23T06:45:43.896Z,60.63
2018-07-23T06:48:16.733Z,60.70
2018-07-23T06:50:49.239Z,59.64
2018-07-23T06:53:22.672Z,60.17
2018-07-23T06:55:57.391Z,60.12
2018-07-23T06:58:30.980Z,59.84
2018-07-23T07:01:03.476Z,59.83
2018-07-23T07:03:37.007Z,60.35
2018-07-23T07:06:09.427Z,59.94
2018-07-23T07:08:42.695Z,60.28
2018-07-23T07:11:16.300Z,59.94
2018-07-23T07:13:48.865Z,58.54
2018-07-23T07:16:21.587Z,57.02
2018-07-23T07:18:55.446Z,56.74
2018-07-23T07:21:27.879Z,56.62
2018-07-23T07:24:09.987Z,57.05
2018-07-23T07:26:42.633Z,56.83
2018-07-23T07:29:16.108Z,56.25
2018-07-23T07:31:49.838Z,56.48
2018-07-23T07:34:22.256Z,55.13
2018-07-23T07:36:55.957Z,54.89
2018-07-23T07:39:29.352Z,54.57
2018-07-23T07:42:04.657Z,54.06
2018-07-23T07:44:42.565Z,53.96
2018-07-23T07:47:22.347Z,52.85
2018-07-23T07:49:55.173Z,51.73
2018-07-23T07:52:27.531Z,50.02
2018-07-23T07:55:00.324Z,48.33
2018-07-23T07:57:33.929Z,44.60
2018-07-23T08:00:07.501Z,42.66
2018-07-23T08:02:42.173Z,42.47
2018-07-23T08:05:14.752Z,41.54
2018-07-23T08:07:47.309Z,42.37
2018-07-23T08:10:20.665Z,40.92
2018-07-23T08:12:56.920Z,40.22
2018-07-23T08:15:31.602Z,40.40
2018-07-23T08:18:05.135Z,40.06
2018-07-23T08:20:38.152Z,40.09
2018-07-23T08:23:11.132Z,40.54
2018-07-23T08:25:45.140Z,40.04
2018-07-23T08:28:22.523Z,40.32
2018-07-23T08:31:01.779Z,41.42
2018-07-23T08:33:42.775Z,41.40
2018-07-23T08:36:22.560Z,41.39
2018-07-23T08:39:01.731Z,40.31
2018-07-23T08:41:34.380Z,40.81
2018-07-23T08:44:09.357Z,40.80
2018-07-23T08:46:50.019Z,40.24
2018-07-23T08:49:34.788Z,40.05
2018-07-23T08:52:13.000Z,40.08
2018-07-23T08:54:57.822Z,38.99
2018-07-23T08:57:50.749Z,39.14
2018-07-23T09:00:27.621Z,39.28
2018-07-23T09:03:24.413Z,39.64
2018-07-23T09:06:10.997Z,39.63
2018-07-23T09:08:43.649Z,40.36
2018-07-23T09:11:20.294Z,39.73
2018-07-23T09:13:55.339Z,38.41
2018-07-23T09:16:31.868Z,37.27
2018-07-23T09:19:05.832Z,36.74
2018-07-23T09:21:40.086Z,37.35
2018-07-23T09:24:12.600Z,36.98
2018-07-23T09:26:45.866Z,38.13
2018-07-23T09:29:20.639Z,37.50
2018-07-23T09:31:54.110Z,37.50
2018-07-23T09:34:27.097Z,38.50
2018-07-23T09:36:59.824Z,38.12
2018-07-23T09:39:33.547Z,36.69
2018-07-23T09:42:08.253Z,36.57
2018-07-23T09:44:41.379Z,37.39
2018-07-23T09:47:17.149Z,36.45
2018-07-23T09:49:49.613Z,35.62
2018-07-23T09:52:22.337Z,35.88
2018-07-23T09:54:56.160Z,34.31
2018-07-23T09:57:29.623Z,34.09
2018-07-23T10:00:07.531Z,34.55
2018-07-23T10:02:41.408Z,34.65
2018-07-23T10:05:15.497Z,36.00
2018-07-23T10:07:49.142Z,35.31
2018-07-23T10:10:23.224Z,34.94
2018-07-23T10:12:57.669Z,36.02
2018-07-23T10:15:33.754Z,36.27
2018-07-23T10:18:06.823Z,36.64
2018-07-23T10:20:40.425Z,37.11
2018-07-23T10:23:13.254Z,38.07
2018-07-23T10:25:45.821Z,38.50
2018-07-23T10:28:18.339Z,37.54
2018-07-23T10:30:51.734Z,37.93
2018-07-23T10:33:27.492Z,38.10
2018-07-23T10:36:02.300Z,37.37
2018-07-23T10:38:35.659Z,37.42
2018-07-23T10:41:12.314Z,36.54
2018-07-23T10:43:46.180Z,36.34
2018-07-23T10:46:20.103Z,36.55
2018-07-23T10:48:57.112Z,36.80
2018-07-23T10:51:33.974Z,35.93
2018-07-23T10:54:09.546Z,35.52
2018-07-23T10:56:44.985Z,34.98
2018-07-23T10:59:19.632Z,35.54
2018-07-23T11:01:55.656Z,34.56
2018-07-23T11:04:36.629Z,35.86
2018-07-23T11:07:11.840Z,35.61
2018-07-23T11:09:47.005Z,37.61
2018-07-23T11:12:25.984Z,38.18
2018-07-23T11:15:03.587Z,38.96
2018-07-23T11:17:36.765Z,38.99
2018-07-23T11:20:13.599Z,37.68
2018-07-23T11:22:50.183Z,36.79
2018-07-23T11:25:39.084Z,35.17
2018-07-23T11:27:58.571Z,35.13
2018-07-23T11:30:33.611Z,36.80
2018-07-23T11:33:10.067Z,37.99
2018-07-23T11:35:43.036Z,38.28
2018-07-23T11:38:16.046Z,37.15
2018-07-23T11:40:48.522Z,37.00
2018-07-23T11:43:24.300Z,36.41
2018-07-23T11:45:57.019Z,36.26
2018-07-23T11:48:32.256Z,35.87
2018-07-23T11:51:07.625Z,34.44
2018-07-23T11:53:45.673Z,33.58
2018-07-23T11:56:36.311Z,33.51
2018-07-23T11:59:11.658Z,34.57
2018-07-23T12:01:49.771Z,34.53
2018-07-23T12:04:25.475Z,33.31
2018-07-23T12:06:59.321Z,33.29
2018-07-23T12:09:33.855Z,32.68
2018-07-23T12:12:07.908Z,32.61
2018-07-23T12:14:41.172Z,31.94
2018-07-23T12:17:15.495Z,31.72
2018-07-23T12:19:51.143Z,31.40
2018-07-23T12:22:24.219Z,30.91
2018-07-23T12:24:59.620Z,31.35
2018-07-23T12:27:34.316Z,31.26
2018-07-23T12:30:06.975Z,30.75
2018-07-23T12:32:41.538Z,30.82
2018-07-23T12:35:16.084Z,30.48
2018-07-23T12:37:50.198Z,31.11
2018-07-23T12:40:23.456Z,32.10
2018-07-23T12:42:59.474Z,32.66
2018-07-23T12:45:32.000Z,32.42
2018-07-23T12:48:06.589Z,31.99
2018-07-23T12:50:39.111Z,32.07
2018-07-23T12:53:14.948Z,31.45
2018-07-23T12:55:49.570Z,31.35
2018-07-23T12:58:23.260Z,31.20
2018-07-23T13:00:56.060Z,32.36
2018-07-23T13:03:30.686Z,32.09
2018-07-23T13:06:03.270Z,31.88
2018-07-23T13:08:36.465Z,31.02
2018-07-23T13:11:09.303Z,30.23
2018-07-23T13:13:44.712Z,29.52
2018-07-23T13:16:18.283Z,28.73
2018-07-23T13:18:51.851Z,27.97
2018-07-23T13:21:24.587Z,27.56
2018-07-23T13:23:59.224Z,29.38
2018-07-23T13:26:33.626Z,28.97
2018-07-23T13:29:07.855Z,28.57
2018-07-23T13:31:45.576Z,28.37
2018-07-23T13:34:18.306Z,29.31
2018-07-23T13:36:52.386Z,29.78
2018-07-23T13:39:25.717Z,28.89
2018-07-23T13:41:58.944Z,27.85
2018-07-23T13:44:32.461Z,26.57
2018-07-23T13:47:05.582Z,26.26
2018-07-23T13:49:38.959Z,25.36
2018-07-23T13:52:11.533Z,25.38
2018-07-23T13:54:44.364Z,25.72
2018-07-23T13:57:18.777Z,27.12
2018-07-23T13:59:52.384Z,27.98
2018-07-23T14:02:26.640Z,26.82
2018-07-23T14:04:59.173Z,27.21
2018-07-23T14:07:34.288Z,27.05
2018-07-23T14:10:12.061Z,28.03
2018-07-23T14:12:44.704Z,27.47
2018-07-23T14:15:17.617Z,27.12
2018-07-23T14:17:50.427Z,27.13
2018-07-23T14:20:23.138Z,27.79
2018-07-23T14:22:55.627Z,27.25
2018-07-23T14:25:29.215Z,26.56
2018-07-23T14:28:01.914Z,25.54
2018-07-23T14:30:37.190Z,24.70
2018-07-23T14:33:09.873Z,24.43
2018-07-23T14:35:46.032Z,24.51
2018-07-23T14:38:20.165Z,26.01
2018-07-23T14:40:52.883Z,27.41
2018-07-23T14:43:25.475Z,28.00
2018-07-23T14:45:59.626Z,28.12
2018-07-23T14:48:33.676Z,27.51
2018-07-23T14:51:07.460Z,26.47
2018-07-23T14:53:41.760Z,25.90
2018-07-23T14:56:14.488Z,26.23
2018-07-23T14:58:46.850Z,26.76
2018-07-23T15:01:27.091Z,26.67
2018-07-23T15:04:02.273Z,26.84
2018-07-23T15:06:51.156Z,26.13
2018-07-23T15:09:28.452Z,27.05
2018-07-23T15:12:01.285Z,28.41
2018-07-23T15:14:38.482Z,27.49
2018-07-23T15:17:11.206Z,28.92
2018-07-23T15:19:43.867Z,28.71
2018-07-23T15:22:19.737Z,27.98
2018-07-23T15:25:10.245Z,27.47
2018-07-23T15:27:47.075Z,27.18
2018-07-23T15:30:21.424Z,27.23
2018-07-23T15:32:54.888Z,26.53
2018-07-23T15:35:29.055Z,26.34
2018-07-23T15:38:05.628Z,25.99
2018-07-23T15:40:41.673Z,25.21
2018-07-23T15:43:16.808Z,24.98
2018-07-23T15:45:49.553Z,24.49
2018-07-23T15:48:23.336Z,25.28
2018-07-23T15:50:57.921Z,25.96
2018-07-23T15:53:36.619Z,25.39
2018-07-23T15:56:14.869Z,25.54
2018-07-23T15:58:48.411Z,25.78
2018-07-23T16:01:22.634Z,26.06
2018-07-23T16:03:55.859Z,25.96
2018-07-23T16:06:30.454Z,25.47
2018-07-23T16:09:08.527Z,25.58
2018-07-23T16:11:41.295Z,26.06
2018-07-23T16:14:15.996Z,26.77
2018-07-23T16:16:54.345Z,26.93
2018-07-23T16:19:31.365Z,26.63
2018-07-23T16:22:05.144Z,25.66
2018-07-23T16:24:39.472Z,25.00
2018-07-23T16:27:13.365Z,25.29
2018-07-23T16:29:46.834Z,25.43
2018-07-23T16:32:20.187Z,25.53
2018-07-23T16:34:52.656Z,25.64
2018-07-23T16:37:26.155Z,25.62
2018-07-23T16:40:01.135Z,26.32
2018-07-23T16:42:36.243Z,26.08
2018-07-23T16:45:08.948Z,25.84
2018-07-23T16:47:42.232Z,25.12
2018-07-23T16:50:15.787Z,25.00
2018-07-23T16:52:48.314Z,25.32
2018-07-23T16:55:22.474Z,25.63
2018-07-23T16:57:58.407Z,26.38
2018-07-23T17:00:34.306Z,26.47
2018-07-23T17:03:07.593Z,26.80
2018-07-23T17:05:45.628Z,26.96
2018-07-23T17:08:22.052Z,27.23
2018-07-23T17:10:54.914Z,28.50
2018-07-23T17:13:34.718Z,29.03
2018-07-23T17:16:29.193Z,28.16
2018-07-23T17:19:02.975Z,28.44
2018-07-23T17:21:36.507Z,28.07
2018-07-23T17:24:09.457Z,28.45
2018-07-23T17:26:42.645Z,28.92
2018-07-23T17:29:16.107Z,29.21
2018-07-23T17:31:48.973Z,29.34
2018-07-23T17:34:21.744Z,29.16
2018-07-23T17:36:55.538Z,29.39
2018-07-23T17:39:33.207Z,29.75
2018-07-23T17:42:06.829Z,29.69
2018-07-23T17:44:42.791Z,29.87
2018-07-23T17:47:15.852Z,30.13
2018-07-23T17:49:49.988Z,31.19
2018-07-23T17:52:25.742Z,31.25
2018-07-23T17:55:00.320Z,30.87
2018-07-23T17:57:35.537Z,31.08
2018-07-23T18:00:09.852Z,31.10
2018-07-23T18:02:48.534Z,31.36
2018-07-23T18:05:22.802Z,31.68
2018-07-23T18:07:57.538Z,31.86
2018-07-23T18:10:33.985Z,32.16
2018-07-23T18:13:16.385Z,32.71
2018-07-23T18:15:48.918Z,32.83
2018-07-23T18:18:23.018Z,32.96
2018-07-23T18:20:56.961Z,33.28
2018-07-23T18:23:33.459Z,33.35
2018-07-23T18:26:08.849Z,34.19
2018-07-23T18:28:44.039Z,34.21
2018-07-23T18:31:17.795Z,34.70
2018-07-23T18:33:50.743Z,35.07
2018-07-23T18:36:24.194Z,36.07
2018-07-23T18:39:01.150Z,36.77
2018-07-23T18:41:36.953Z,37.34
2018-07-23T18:44:15.720Z,37.80
2018-07-23T18:46:55.719Z,38.13
2018-07-23T18:49:52.240Z,38.82
2018-07-23T18:52:29.622Z,38.86
2018-07-23T18:55:03.264Z,39.28
2018-07-23T18:57:35.665Z,39.34
2018-07-23T19:00:08.146Z,39.62
2018-07-23T19:02:41.518Z,39.82
2018-07-23T19:05:15.516Z,40.21
2018-07-23T19:07:49.766Z,40.48
2018-07-23T19:10:22.926Z,41.08
2018-07-23T19:12:57.311Z,41.84
2018-07-23T19:15:32.525Z,42.47
2018-07-23T19:18:06.860Z,43.05
2018-07-23T19:20:48.160Z,43.77
2018-07-23T19:23:27.326Z,44.40
2018-07-23T19:26:02.956Z,44.98
2018-07-23T19:28:39.880Z,45.93
2018-07-23T19:31:13.550Z,46.61
2018-07-23T19:33:46.263Z,47.04
2018-07-23T19:36:19.077Z,47.42
2018-07-23T19:38:53.680Z,47.89
2018-07-23T19:41:31.713Z,48.49
2018-07-23T19:44:37.988Z,48.94
2018-07-23T19:47:41.375Z,49.74
2018-07-23T19:50:45.665Z,50.74
2018-07-23T19:53:59.680Z,51.55
2018-07-23T19:56:40.652Z,52.42
2018-07-23T19:59:20.735Z,53.47
2018-07-23T20:01:54.255Z,53.70
2018-07-23T20:04:28.832Z,54.45
2018-07-23T20:07:03.912Z,55.15
2018-07-23T20:09:37.452Z,55.16
2018-07-23T20:12:16.766Z,55.36
2018-07-23T20:14:53.452Z,55.95
2018-07-23T20:17:29.505Z,57.17
2018-07-23T20:20:09.265Z,57.60
2018-07-23T20:22:55.388Z,58.02
2018-07-23T20:25:30.352Z,58.40
2018-07-23T20:28:07.928Z,58.38
2018-07-23T20:30:54.427Z,58.64
2018-07-23T20:36:04.333Z,60.31
2018-07-23T20:38:37.088Z,61.29
2018-07-23T20:41:11.365Z,61.52
2018-07-23T20:43:46.879Z,61.93
2018-07-23T20:46:20.964Z,62.29
2018-07-23T20:48:54.616Z,62.81
2018-07-23T20:51:32.657Z,63.22
2018-07-23T20:54:08.388Z,63.60
2018-07-23T20:56:41.157Z,64.11
2018-07-23T20:59:15.468Z,64.22
2018-07-23T21:01:50.220Z,64.75
2018-07-23T21:04:26.024Z,65.23
2018-07-23T21:07:00.722Z,65.66
2018-07-23T21:09:34.837Z,66.05
2018-07-23T21:12:09.306Z,67.14
2018-07-23T21:14:41.975Z,67.34
2018-07-23T21:17:16.360Z,67.38
2018-07-23T21:19:48.916Z,67.61
2018-07-23T21:22:22.657Z,67.62
2018-07-23T21:25:00.525Z,67.57
2018-07-23T21:27:34.178Z,67.54
2018-07-23T21:30:09.407Z,67.58
2018-07-23T21:32:44.455Z,68.14
2018-07-23T21:35:18.976Z,68.48
2018-07-23T21:37:53.097Z,69.20
2018-07-23T21:40:26.173Z,69.34
2018-07-23T21:43:00.277Z,69.51
2018-07-23T21:45:34.249Z,69.78
2018-07-23T21:48:08.123Z,70.16
2018-07-23T21:50:41.893Z,70.25
2018-07-23T21:53:19.373Z,70.58
2018-07-23T21:55:55.327Z,71.17
2018-07-23T21:58:28.261Z,71.57
2018-07-23T22:01:01.515Z,71.48
2018-07-23T22:03:35.774Z,71.16
2018-07-23T22:06:09.550Z,71.00
2018-07-23T22:08:45.401Z,70.94
2018-07-23T22:11:19.127Z,71.26
2018-07-23T22:13:51.792Z,71.53
2018-07-23T22:16:25.362Z,71.38
2018-07-23T22:18:58.838Z,70.95
2018-07-23T22:21:32.009Z,70.96
2018-07-23T22:24:06.085Z,71.04
2018-07-23T22:26:38.675Z,71.59
2018-07-23T22:29:12.216Z,71.81
2018-07-23T22:31:45.260Z,72.26
2018-07-23T22:34:18.056Z,72.21
2018-07-23T22:36:52.598Z,72.38
2018-07-23T22:39:28.380Z,73.13
2018-07-23T22:42:01.863Z,73.65
2018-07-23T22:44:37.060Z,74.01
2018-07-23T22:47:13.664Z,74.04
2018-07-23T22:49:46.348Z,73.83
2018-07-23T22:52:25.023Z,74.21
2018-07-23T22:54:57.761Z,74.24
2018-07-23T22:57:33.298Z,74.44
2018-07-23T23:00:08.925Z,74.40
2018-07-23T23:02:42.488Z,74.29
2018-07-23T23:05:17.549Z,74.39
2018-07-23T23:07:50.941Z,74.84
2018-07-23T23:10:26.385Z,74.77
2018-07-23T23:13:01.554Z,74.91
2018-07-23T23:15:34.211Z,75.52
2018-07-23T23:18:06.811Z,76.05
2018-07-23T23:20:42.512Z,76.48
2018-07-23T23:23:16.065Z,76.57
2018-07-23T23:25:48.751Z,76.72
2018-07-23T23:28:22.766Z,77.08
2018-07-23T23:30:59.256Z,77.34
2018-07-23T23:33:32.884Z,77.45
2018-07-23T23:36:06.832Z,77.56
2018-07-23T23:38:40.551Z,77.61
2018-07-23T23:41:13.354Z,77.84
2018-07-23T23:43:48.861Z,77.89
2018-07-23T23:46:21.809Z,78.06
2018-07-23T23:48:55.269Z,78.27
2018-07-23T23:51:28.232Z,78.58
2018-07-23T23:54:02.632Z,78.82
2018-07-23T23:56:35.279Z,78.90
2018-07-23T23:59:09.258Z,79.46
